BISG weather

Steinasandur Airport
Steinasandur, Eastern Region, Iceland

Public forecast

Using degrees Celsius for public forecast. Weather courtesy of forecast.io.

Closest aviation weather report (METAR) to Steinasandur Airport

Closest report is Hornafjörður Airport, 19.2 nm (35.5 km) ENE. Retrieved 2020/07/13 08:00 UTC (3 minutes ago):

BIHN 130800Z 32004KT 9999 VCSH BKN015 OVC019 11/10 Q1009

Closest aviation forecast (TAF) to Steinasandur Airport

Closest forecast is Egilsstaðir Airport, 77.2 nm (143.1 km) NNE. Retrieved 2020/07/13 09:00 UTC (0 seconds ago):

TAF BIEG 130753Z 1309/1409 19008KT 9999 FEW040 BKN055 TX16/1318Z TN08/1403Z TEMPO 1309/1314 -DZRA BKN015 OVC030 PROB40 TEMPO 1314/1321 SHRA BKN025CB